createdAt,value
2022-12-09T00:04:53.553Z,77.85
2022-12-09T00:09:55.286Z,77.06
2022-12-09T00:14:56.844Z,77.73
2022-12-09T00:19:58.390Z,78.01
2022-12-09T00:24:59.964Z,77.80
2022-12-09T00:30:01.693Z,78.25
2022-12-09T00:35:04.806Z,78.15
2022-12-09T00:40:07.324Z,78.62
2022-12-09T00:45:09.444Z,78.39
2022-12-09T00:50:11.386Z,78.31
2022-12-09T00:55:13.347Z,78.27
2022-12-09T01:00:15.297Z,78.00
2022-12-09T01:05:16.969Z,78.34
2022-12-09T01:10:18.766Z,78.56
2022-12-09T01:15:20.336Z,78.46
2022-12-09T01:20:22.182Z,78.91
2022-12-09T01:25:23.792Z,78.09
2022-12-09T01:30:25.476Z,78.88
2022-12-09T01:35:28.802Z,78.45
2022-12-09T01:40:30.572Z,78.68
2022-12-09T01:45:39.148Z,78.30
2022-12-09T01:51:12.423Z,77.95
2022-12-09T01:56:27.229Z,78.52
2022-12-09T02:01:29.132Z,78.71
2022-12-09T02:06:31.112Z,79.00
2022-12-09T02:12:06.223Z,78.82
2022-12-09T02:17:13.959Z,78.77
2022-12-09T02:22:21.283Z,78.11
2022-12-09T02:27:36.667Z,77.61
2022-12-09T02:33:01.315Z,78.20
2022-12-09T02:38:08.758Z,77.14
2022-12-09T02:43:12.789Z,76.90
2022-12-09T02:48:18.672Z,77.21
2022-12-09T02:53:21.796Z,76.78
2022-12-09T02:58:23.630Z,76.75
2022-12-09T03:03:27.423Z,76.91
2022-12-09T03:08:53.229Z,77.54
2022-12-09T03:14:06.211Z,76.89
2022-12-09T03:19:36.367Z,77.21
2022-12-09T03:25:10.402Z,77.13
2022-12-09T03:30:13.554Z,77.08
2022-12-09T03:35:23.438Z,77.78
2022-12-09T03:40:27.108Z,77.86
2022-12-09T03:45:29.489Z,78.06
2022-12-09T03:50:40.029Z,78.22
2022-12-09T03:56:16.702Z,77.55
2022-12-09T04:01:19.846Z,78.29
2022-12-09T04:06:22.546Z,78.08
2022-12-09T04:11:24.347Z,78.13
2022-12-09T04:16:26.425Z,78.17
2022-12-09T04:21:28.603Z,78.56
2022-12-09T04:26:30.426Z,78.15
2022-12-09T04:31:32.526Z,77.82
2022-12-09T04:36:34.136Z,77.80
2022-12-09T04:41:36.852Z,78.38
2022-12-09T04:46:38.668Z,78.84
2022-12-09T04:51:40.922Z,78.91
2022-12-09T04:56:42.652Z,78.94
2022-12-09T05:01:44.388Z,78.60
2022-12-09T05:06:46.402Z,78.86
2022-12-09T05:11:48.548Z,78.80
2022-12-09T05:16:50.259Z,78.53
2022-12-09T05:21:51.973Z,79.03
2022-12-09T05:26:53.734Z,79.26
2022-12-09T05:31:55.371Z,79.54
2022-12-09T05:36:57.282Z,79.49
2022-12-09T05:41:59.377Z,79.57
2022-12-09T05:47:01.469Z,80.61
2022-12-09T05:52:03.305Z,80.23
2022-12-09T05:57:05.296Z,80.72
2022-12-09T06:02:09.996Z,80.23
2022-12-09T06:07:12.261Z,80.52
2022-12-09T06:12:14.642Z,80.43
2022-12-09T06:17:16.472Z,80.69
2022-12-09T06:22:18.568Z,80.29
2022-12-09T06:27:20.205Z,80.21
2022-12-09T06:32:22.624Z,80.18
2022-12-09T06:37:24.705Z,79.79
2022-12-09T06:42:26.476Z,80.14
2022-12-09T06:47:28.982Z,80.31
2022-12-09T06:52:30.690Z,80.00
2022-12-09T06:57:32.879Z,79.89
2022-12-09T07:02:36.717Z,79.66
2022-12-09T07:07:38.811Z,79.45
2022-12-09T07:12:40.730Z,79.78
2022-12-09T07:17:42.532Z,79.65
2022-12-09T07:22:44.279Z,79.66
2022-12-09T07:27:45.975Z,79.46
2022-12-09T07:32:47.954Z,79.15
2022-12-09T07:37:49.830Z,79.39
2022-12-09T07:42:54.901Z,80.02
2022-12-09T07:48:00.781Z,79.61
2022-12-09T07:53:02.603Z,79.45
2022-12-09T07:58:04.431Z,79.43
2022-12-09T08:03:06.496Z,80.04
2022-12-09T08:08:08.505Z,79.61
2022-12-09T08:13:10.983Z,80.22
2022-12-09T08:18:12.835Z,80.74
2022-12-09T08:23:15.042Z,80.36
2022-12-09T08:28:17.140Z,80.71
2022-12-09T08:33:19.055Z,79.72
2022-12-09T08:38:21.022Z,79.01
2022-12-09T08:43:22.725Z,79.30
2022-12-09T08:48:24.661Z,78.00
2022-12-09T08:53:26.378Z,76.16
2022-12-09T08:58:28.129Z,76.53
2022-12-09T09:03:29.867Z,75.80
2022-12-09T09:08:32.849Z,75.75
2022-12-09T09:13:34.766Z,75.68
2022-12-09T09:18:37.015Z,75.56
2022-12-09T09:23:40.078Z,75.22
2022-12-09T09:28:41.972Z,74.96
2022-12-09T09:33:44.416Z,74.26
2022-12-09T09:38:47.164Z,71.94
2022-12-09T09:43:49.877Z,72.87
2022-12-09T09:48:53.033Z,71.02
2022-12-09T09:53:55.577Z,71.34
2022-12-09T09:59:20.504Z,70.98
2022-12-09T10:04:31.536Z,70.78
2022-12-09T10:09:53.157Z,69.95
2022-12-09T10:14:55.431Z,70.50
2022-12-09T10:20:11.935Z,70.01
2022-12-09T10:25:22.850Z,69.87
2022-12-09T10:30:26.296Z,69.81
2022-12-09T10:35:32.941Z,69.56
2022-12-09T10:40:38.259Z,69.61
2022-12-09T10:51:13.148Z,68.57
2022-12-09T10:56:28.407Z,65.60
2022-12-09T11:01:30.591Z,67.40
2022-12-09T11:06:41.723Z,65.98
2022-12-09T11:11:47.174Z,65.65
2022-12-09T11:16:54.591Z,64.60
2022-12-09T11:22:13.625Z,66.07
2022-12-09T11:27:26.196Z,65.90
2022-12-09T11:32:28.451Z,65.90
2022-12-09T11:37:31.959Z,67.29
2022-12-09T11:42:33.722Z,67.50
2022-12-09T11:48:21.632Z,68.31
2022-12-09T11:53:12.876Z,68.39
2022-12-09T11:58:20.825Z,69.10
2022-12-09T12:03:29.905Z,68.66
2022-12-09T12:08:46.505Z,69.75
2022-12-09T12:13:50.962Z,69.32
2022-12-09T12:19:07.351Z,69.86
2022-12-09T12:24:39.885Z,70.55
2022-12-09T12:30:05.564Z,70.59
2022-12-09T12:35:31.720Z,69.74
2022-12-09T12:40:42.485Z,70.87
2022-12-09T12:46:18.251Z,70.24
2022-12-09T12:51:22.828Z,69.94
2022-12-09T12:56:53.859Z,69.92
2022-12-09T13:02:13.747Z,69.42
2022-12-09T13:07:25.119Z,70.13
2022-12-09T13:12:53.797Z,69.35
2022-12-09T13:17:55.864Z,70.13
2022-12-09T13:23:03.259Z,70.36
2022-12-09T13:28:16.192Z,70.14
2022-12-09T13:33:17.686Z,69.84
2022-12-09T13:38:32.263Z,70.74
2022-12-09T13:43:33.821Z,70.05
2022-12-09T13:48:43.066Z,70.85
2022-12-09T13:53:49.720Z,71.22
2022-12-09T13:59:30.936Z,71.11
2022-12-09T14:04:37.408Z,71.10
2022-12-09T14:09:47.244Z,71.56
2022-12-09T14:14:52.498Z,71.84
2022-12-09T14:20:00.971Z,71.17
2022-12-09T14:25:34.867Z,71.33
2022-12-09T14:30:56.176Z,71.22
2022-12-09T14:36:04.916Z,70.85
2022-12-09T14:41:12.556Z,70.91
2022-12-09T14:46:25.572Z,70.69
2022-12-09T14:51:37.360Z,70.39
2022-12-09T14:56:39.202Z,70.21
2022-12-09T15:02:07.203Z,71.58
2022-12-09T15:07:25.105Z,71.95
2022-12-09T15:12:40.333Z,72.00
2022-12-09T15:17:45.469Z,72.57
2022-12-09T15:22:52.839Z,72.51
2022-12-09T15:28:13.365Z,72.63
2022-12-09T15:33:18.126Z,72.92
2022-12-09T15:38:20.463Z,73.40
2022-12-09T15:43:22.138Z,73.29
2022-12-09T15:48:30.211Z,73.58
2022-12-09T15:53:41.793Z,75.41
2022-12-09T15:58:52.704Z,75.24
2022-12-09T16:03:56.556Z,75.30
2022-12-09T16:08:59.275Z,75.27
2022-12-09T16:14:01.331Z,76.54
2022-12-09T16:19:02.980Z,75.75
2022-12-09T16:24:12.877Z,76.93
2022-12-09T16:29:27.719Z,77.08
2022-12-09T16:34:29.906Z,76.72
2022-12-09T16:39:33.402Z,77.69
2022-12-09T16:44:38.261Z,77.77
2022-12-09T16:49:41.527Z,78.25
2022-12-09T16:54:45.576Z,79.42
2022-12-09T16:59:47.615Z,78.60
2022-12-09T17:04:50.549Z,78.45
2022-12-09T17:09:52.302Z,79.33
2022-12-09T17:14:54.372Z,79.43
2022-12-09T17:19:55.997Z,79.33
2022-12-09T17:24:57.636Z,79.16
2022-12-09T17:29:59.199Z,80.03
2022-12-09T17:35:00.736Z,80.63
2022-12-09T17:40:06.568Z,80.69
2022-12-09T17:45:08.990Z,80.92
2022-12-09T17:50:11.054Z,81.18
2022-12-09T17:55:12.731Z,80.88
2022-12-09T18:00:15.150Z,80.09
2022-12-09T18:05:16.766Z,80.61
2022-12-09T18:10:18.510Z,81.05
2022-12-09T18:15:20.067Z,81.72
2022-12-09T18:20:21.816Z,82.36
2022-12-09T18:25:23.669Z,81.46
2022-12-09T18:30:25.205Z,81.28
2022-12-09T18:35:27.228Z,82.08
2022-12-09T18:40:29.002Z,82.24
2022-12-09T18:45:30.579Z,80.83
2022-12-09T18:50:37.131Z,81.36
2022-12-09T18:55:42.610Z,81.84
2022-12-09T19:00:44.268Z,81.50
2022-12-09T19:05:45.797Z,81.98
2022-12-09T19:10:54.408Z,82.34
2022-12-09T19:15:55.970Z,81.96
2022-12-09T19:21:07.946Z,81.99
2022-12-09T19:26:24.983Z,81.86
2022-12-09T19:31:36.034Z,82.46
2022-12-09T19:36:37.887Z,82.30
2022-12-09T19:41:40.493Z,81.54
2022-12-09T19:46:42.168Z,82.35
2022-12-09T19:51:44.380Z,82.20
2022-12-09T19:56:47.681Z,82.93
2022-12-09T20:01:49.762Z,82.39
2022-12-09T20:06:51.433Z,83.75
2022-12-09T20:11:53.086Z,82.76
2022-12-09T20:16:54.741Z,83.28
2022-12-09T20:21:56.333Z,83.42
2022-12-09T20:26:58.224Z,83.09
2022-12-09T20:31:59.809Z,83.86
2022-12-09T20:37:01.414Z,83.55
2022-12-09T20:42:02.979Z,83.37
2022-12-09T20:47:04.562Z,83.54
2022-12-09T20:52:06.535Z,83.22
2022-12-09T20:57:08.110Z,83.09
2022-12-09T21:02:13.942Z,83.34
2022-12-09T21:07:16.527Z,84.25
2022-12-09T21:12:18.091Z,84.00
2022-12-09T21:17:19.654Z,84.19
2022-12-09T21:22:21.214Z,83.97
2022-12-09T21:27:22.836Z,83.86
2022-12-09T21:32:24.419Z,84.49
2022-12-09T21:37:25.980Z,83.71
2022-12-09T21:42:27.544Z,84.86
2022-12-09T21:47:29.076Z,84.52
2022-12-09T21:52:30.781Z,84.46
2022-12-09T21:57:34.136Z,84.37
2022-12-09T22:02:35.812Z,84.56
2022-12-09T22:07:37.524Z,83.86
2022-12-09T22:12:39.084Z,83.99
2022-12-09T22:17:40.712Z,83.88
2022-12-09T22:22:42.255Z,83.62
2022-12-09T22:27:43.827Z,83.58
2022-12-09T22:32:50.461Z,83.84
2022-12-09T22:37:52.404Z,84.03
2022-12-09T22:42:53.944Z,84.00
2022-12-09T22:47:55.528Z,83.30
2022-12-09T22:52:57.203Z,84.08
2022-12-09T22:57:58.748Z,84.35
2022-12-09T23:03:00.397Z,83.90
2022-12-09T23:08:02.136Z,84.21
2022-12-09T23:13:04.306Z,84.49
2022-12-09T23:18:06.261Z,84.23
2022-12-09T23:23:08.283Z,84.63
2022-12-09T23:28:11.613Z,84.82
2022-12-09T23:33:13.183Z,85.52
2022-12-09T23:38:14.732Z,85.07
2022-12-09T23:43:16.281Z,85.25
2022-12-09T23:48:17.841Z,84.99
2022-12-09T23:53:19.565Z,85.20
2022-12-09T23:58:21.171Z,85.92
